createdAt,value
2023-04-18T00:00:24.683Z,97274.72
2023-04-18T00:03:16.043Z,97267.25
2023-04-18T00:06:06.532Z,97277.44
2023-04-18T00:08:54.983Z,97272.41
2023-04-18T00:11:43.599Z,97265.22
2023-04-18T00:14:34.222Z,97264.63
2023-04-18T00:17:22.634Z,97262.00
2023-04-18T00:20:12.795Z,97268.94
2023-04-18T00:23:02.780Z,97271.09
2023-04-18T00:25:51.296Z,97271.66
2023-04-18T00:28:39.785Z,97262.53
2023-04-18T00:31:28.187Z,97259.88
2023-04-18T00:34:16.587Z,97256.38
2023-04-18T00:37:07.026Z,97265.47
2023-04-18T00:39:56.873Z,97259.66
2023-04-18T00:42:45.297Z,97255.09
2023-04-18T00:45:35.770Z,97254.03
2023-04-18T00:48:24.682Z,97251.13
2023-04-18T00:51:13.399Z,97254.28
2023-04-18T00:54:01.953Z,97262.84
2023-04-18T00:56:51.717Z,97260.47
2023-04-18T00:59:40.659Z,97265.78
2023-04-18T01:02:30.571Z,97267.13
2023-04-18T01:05:21.194Z,97262.06
2023-04-18T01:08:09.567Z,97274.88
2023-04-18T01:10:57.989Z,97271.13
2023-04-18T01:14:01.572Z,97269.25
2023-04-18T01:16:49.954Z,97269.53
2023-04-18T01:19:40.739Z,97268.50
2023-04-18T01:22:29.924Z,97273.34
2023-04-18T01:25:19.708Z,97268.53
2023-04-18T01:28:09.080Z,97267.47
2023-04-18T01:30:57.587Z,97261.03
2023-04-18T01:33:46.068Z,97263.72
2023-04-18T01:36:35.017Z,97266.97
2023-04-18T01:39:23.997Z,97268.56
2023-04-18T01:42:15.254Z,97259.47
2023-04-18T01:45:07.325Z,97258.41
2023-04-18T01:47:55.948Z,97259.44
2023-04-18T01:50:44.334Z,97256.28
2023-04-18T01:53:33.489Z,97255.19
2023-04-18T01:56:22.135Z,97248.78
2023-04-18T01:59:11.931Z,97250.41
2023-04-18T02:02:00.726Z,97248.81
2023-04-18T02:04:49.147Z,97245.03
2023-04-18T02:07:37.521Z,97243.72
2023-04-18T02:10:26.065Z,97243.19
2023-04-18T02:13:15.116Z,97245.84
2023-04-18T02:16:05.080Z,97248.78
2023-04-18T02:18:53.609Z,97244.53
2023-04-18T02:21:44.497Z,97252.03
2023-04-18T02:24:32.871Z,97253.09
2023-04-18T02:27:21.196Z,97252.84
2023-04-18T02:30:10.545Z,97249.63
2023-04-18T02:33:00.393Z,97255.78
2023-04-18T02:35:48.720Z,97253.63
2023-04-18T02:38:37.626Z,97251.22
2023-04-18T02:41:26.109Z,97267.00
2023-04-18T02:44:17.144Z,97261.66
2023-04-18T02:47:05.907Z,97258.97
2023-04-18T02:49:58.323Z,97265.13
2023-04-18T02:52:48.756Z,97267.81
2023-04-18T02:55:41.673Z,97272.88
2023-04-18T02:58:29.999Z,97266.47
2023-04-18T03:01:19.007Z,97266.75
2023-04-18T03:04:15.366Z,97263.28
2023-04-18T03:07:17.071Z,97272.59
2023-04-18T03:10:06.422Z,97263.28
2023-04-18T03:12:57.189Z,97260.06
2023-04-18T03:15:45.967Z,97260.06
2023-04-18T03:18:35.057Z,97259.78
2023-04-18T03:21:24.163Z,97263.28
2023-04-18T03:24:14.298Z,97262.72
2023-04-18T03:27:06.083Z,97253.66
2023-04-18T03:29:55.030Z,97264.84
2023-04-18T03:32:44.236Z,97258.19
2023-04-18T03:35:32.705Z,97267.53
2023-04-18T03:38:21.523Z,97260.31
2023-04-18T03:41:11.631Z,97267.53
2023-04-18T03:44:00.441Z,97258.72
2023-04-18T03:46:49.720Z,97265.66
2023-04-18T03:49:39.046Z,97266.97
2023-04-18T03:52:29.625Z,97258.44
2023-04-18T03:55:19.026Z,97260.56
2023-04-18T03:58:09.472Z,97267.53
2023-04-18T04:00:58.125Z,97260.31
2023-04-18T04:03:47.398Z,97260.56
2023-04-18T04:06:36.493Z,97259.47
2023-04-18T04:09:25.177Z,97265.34
2023-04-18T04:12:13.599Z,97276.28
2023-04-18T04:15:03.406Z,97267.47
2023-04-18T04:17:52.464Z,97271.50
2023-04-18T04:20:42.534Z,97270.13
2023-04-18T04:23:35.364Z,97268.53
2023-04-18T04:26:24.094Z,97276.00
2023-04-18T04:29:21.600Z,97284.78
2023-04-18T04:32:12.924Z,97282.13
2023-04-18T04:35:02.070Z,97280.56
2023-04-18T04:37:52.794Z,97280.81
2023-04-18T04:40:47.448Z,97282.91
2023-04-18T04:43:36.040Z,97288.00
2023-04-18T04:46:24.511Z,97290.94
2023-04-18T04:49:14.367Z,97287.19
2023-04-18T04:52:03.942Z,97289.31
2023-04-18T04:54:53.120Z,97293.03
2023-04-18T04:57:44.774Z,97292.53
2023-04-18T05:00:47.186Z,97286.91
2023-04-18T05:03:36.697Z,97280.25
2023-04-18T05:06:27.679Z,97293.59
2023-04-18T05:09:16.180Z,97300.53
2023-04-18T05:12:05.314Z,97305.56
2023-04-18T05:14:53.799Z,97300.53
2023-04-18T05:17:42.276Z,97304.00
2023-04-18T05:20:30.752Z,97301.56
2023-04-18T05:23:20.493Z,97303.72
2023-04-18T05:26:08.999Z,97313.00
2023-04-18T05:28:57.382Z,97310.66
2023-04-18T05:31:45.771Z,97302.09
2023-04-18T05:34:38.046Z,97305.31
2023-04-18T05:37:27.267Z,97308.00
2023-04-18T05:40:17.204Z,97312.84
2023-04-18T05:43:05.797Z,97308.00
2023-04-18T05:45:55.915Z,97309.63
2023-04-18T05:48:46.134Z,97319.25
2023-04-18T05:51:34.516Z,97316.03
2023-04-18T05:54:22.882Z,97315.00
2023-04-18T05:57:12.736Z,97319.81
2023-04-18T06:00:01.137Z,97325.72
2023-04-18T06:02:49.744Z,97326.78
2023-04-18T06:05:38.541Z,97319.84
2023-04-18T06:08:26.993Z,97324.13
2023-04-18T06:11:15.486Z,97331.63
2023-04-18T06:14:05.407Z,97327.09
2023-04-18T06:16:53.802Z,97330.84
2023-04-18T06:19:42.171Z,97328.47
2023-04-18T06:22:30.526Z,97323.63
2023-04-18T06:25:19.335Z,97328.97
2023-04-18T06:28:07.754Z,97323.66
2023-04-18T06:30:57.467Z,97337.03
2023-04-18T06:33:45.900Z,97338.09
2023-04-18T06:36:34.458Z,97333.81
2023-04-18T06:39:22.876Z,97334.06
2023-04-18T06:42:11.289Z,97337.03
2023-04-18T06:45:07.036Z,97330.06
2023-04-18T06:47:56.847Z,97337.03
2023-04-18T06:50:45.685Z,97339.19
2023-04-18T06:53:34.064Z,97337.56
2023-04-18T06:56:22.563Z,97339.72
2023-04-18T06:59:11.061Z,97340.25
2023-04-18T07:01:59.524Z,97335.97
2023-04-18T07:04:49.274Z,97332.75
2023-04-18T07:07:37.828Z,97331.38
2023-04-18T07:10:26.230Z,97333.78
2023-04-18T07:13:14.577Z,97336.47
2023-04-18T07:16:03.075Z,97337.53
2023-04-18T07:18:51.789Z,97339.66
2023-04-18T07:21:43.677Z,97336.97
2023-04-18T07:24:32.208Z,97335.34
2023-04-18T07:27:20.626Z,97330.25
2023-04-18T07:30:10.045Z,97333.72
2023-04-18T07:32:58.483Z,97336.63
2023-04-18T07:35:46.921Z,97327.47
2023-04-18T07:38:36.689Z,97333.09
2023-04-18T07:41:25.089Z,97335.47
2023-04-18T07:44:13.689Z,97336.50
2023-04-18T07:47:02.342Z,97346.09
2023-04-18T07:49:50.819Z,97341.78
2023-04-18T07:52:39.600Z,97345.28
2023-04-18T07:55:29.445Z,97352.19
2023-04-18T07:58:17.864Z,97348.34
2023-04-18T08:01:07.082Z,97353.41
2023-04-18T08:03:57.777Z,97350.44
2023-04-18T08:06:46.364Z,97350.13
2023-04-18T08:09:34.843Z,97344.44
2023-04-18T08:12:24.764Z,97358.53
2023-04-18T08:15:13.265Z,97361.13
2023-04-18T08:18:02.044Z,97364.66
2023-04-18T08:20:50.445Z,97360.84
2023-04-18T08:23:38.986Z,97357.72
2023-04-18T08:26:27.367Z,97361.88
2023-04-18T08:29:17.118Z,97356.72
2023-04-18T08:32:07.935Z,97359.34
2023-04-18T08:34:57.284Z,97354.69
2023-04-18T08:37:45.742Z,97349.00
2023-04-18T08:40:34.112Z,97355.09
2023-04-18T08:43:22.701Z,97359.09
2023-04-18T08:46:12.741Z,97368.94
2023-04-18T08:49:04.585Z,97368.47
2023-04-18T08:51:54.012Z,97367.91
2023-04-18T08:54:43.076Z,97353.50
2023-04-18T08:57:33.351Z,97359.88
2023-04-18T09:00:22.743Z,97370.00
2023-04-18T09:03:15.704Z,97373.03
2023-04-18T09:06:09.325Z,97372.91
2023-04-18T09:08:58.930Z,97374.97
2023-04-18T09:11:47.995Z,97376.69
2023-04-18T09:14:37.579Z,97378.56
2023-04-18T09:17:34.882Z,97382.50
2023-04-18T09:20:35.790Z,97382.63
2023-04-18T09:23:26.200Z,97380.31
2023-04-18T09:26:14.698Z,97378.59
2023-04-18T09:29:03.269Z,97377.47
2023-04-18T09:31:57.332Z,97375.81
2023-04-18T09:34:45.834Z,97381.78
2023-04-18T09:37:36.357Z,97381.22
2023-04-18T09:40:25.086Z,97382.06
2023-04-18T09:43:20.527Z,97375.47
2023-04-18T09:46:09.448Z,97372.25
2023-04-18T09:48:57.864Z,97378.53
2023-04-18T09:51:46.782Z,97375.09
2023-04-18T09:54:39.707Z,97374.34
2023-04-18T09:57:29.631Z,97369.13
2023-04-18T10:00:24.365Z,97381.50
2023-04-18T10:03:14.331Z,97372.34
2023-04-18T10:06:02.950Z,97375.06
2023-04-18T10:08:52.669Z,97369.78
2023-04-18T10:11:42.534Z,97370.94
2023-04-18T10:14:31.646Z,97378.88
2023-04-18T10:17:21.595Z,97368.75
2023-04-18T10:20:11.903Z,97371.81
2023-04-18T10:23:00.866Z,97360.81
2023-04-18T10:25:50.640Z,97364.19
2023-04-18T10:28:54.443Z,97368.38
2023-04-18T10:31:43.973Z,97368.09
2023-04-18T10:34:32.436Z,97368.97
2023-04-18T10:37:20.778Z,97362.59
2023-04-18T10:40:10.950Z,97355.19
2023-04-18T10:42:59.517Z,97362.06
2023-04-18T10:46:20.487Z,97361.16
2023-04-18T10:49:18.164Z,97358.88
2023-04-18T10:52:06.992Z,97365.66
2023-04-18T10:55:11.828Z,97356.81
2023-04-18T10:58:00.708Z,97347.06
2023-04-18T11:00:49.600Z,97361.41
2023-04-18T11:03:39.437Z,97359.78
2023-04-18T11:06:27.945Z,97356.16
2023-04-18T11:09:17.052Z,97354.44
2023-04-18T11:12:07.490Z,97348.88
2023-04-18T11:14:55.986Z,97345.56
2023-04-18T11:17:45.060Z,97346.13
2023-04-18T11:20:41.029Z,97341.31
2023-04-18T11:23:29.380Z,97333.03
2023-04-18T11:26:19.770Z,97339.81
2023-04-18T11:29:08.112Z,97341.31
2023-04-18T11:31:58.573Z,97338.00
2023-04-18T11:34:47.231Z,97335.22
2023-04-18T11:37:37.669Z,97346.22
2023-04-18T11:40:26.180Z,97332.69
2023-04-18T11:43:21.200Z,97345.38
2023-04-18T11:46:09.660Z,97334.28
2023-04-18T11:48:58.110Z,97342.13
2023-04-18T11:51:48.000Z,97338.44
2023-04-18T11:54:39.350Z,97343.59
2023-04-18T11:57:28.339Z,97341.97
2023-04-18T12:00:19.078Z,97339.50
2023-04-18T12:03:11.886Z,97342.13
2023-04-18T12:06:01.864Z,97341.41
2023-04-18T12:08:50.901Z,97343.22
2023-04-18T12:11:42.659Z,97342.28
2023-04-18T12:14:31.446Z,97352.03
2023-04-18T12:17:19.816Z,97348.53
2023-04-18T12:20:10.055Z,97344.63
2023-04-18T12:22:58.500Z,97352.81
2023-04-18T12:25:46.808Z,97352.09
2023-04-18T12:28:36.622Z,97349.38
2023-04-18T12:31:25.051Z,97355.25
2023-04-18T12:34:13.688Z,97353.78
2023-04-18T12:37:03.664Z,97350.38
2023-04-18T12:39:52.006Z,97350.59
2023-04-18T12:42:41.324Z,97346.63
2023-04-18T12:45:31.254Z,97350.59
2023-04-18T12:48:19.616Z,97349.78
2023-04-18T12:51:07.995Z,97353.78
2023-04-18T12:53:56.462Z,97360.41
2023-04-18T12:56:46.256Z,97354.06
2023-04-18T12:59:34.558Z,97356.75
2023-04-18T13:02:24.601Z,97361.06
2023-04-18T13:05:14.422Z,97357.19
2023-04-18T13:10:55.225Z,97350.16
2023-04-18T13:13:43.646Z,97357.38
2023-04-18T13:16:32.140Z,97359.69
2023-04-18T13:19:22.364Z,97363.19
2023-04-18T13:22:10.748Z,97351.03
2023-04-18T13:24:59.111Z,97356.47
2023-04-18T13:27:47.458Z,97353.59
2023-04-18T13:30:36.654Z,97359.16
2023-04-18T13:33:24.922Z,97356.56
2023-04-18T13:36:14.630Z,97357.03
2023-04-18T13:39:04.566Z,97349.03
2023-04-18T13:41:54.400Z,97352.19
2023-04-18T13:44:42.812Z,97363.31
2023-04-18T13:47:31.345Z,97363.31
2023-04-18T13:50:20.305Z,97363.81
2023-04-18T13:53:10.062Z,97366.53
2023-04-18T13:55:58.529Z,97362.88
2023-04-18T13:58:46.850Z,97359.69
2023-04-18T14:01:35.429Z,97366.06
2023-04-18T14:04:24.778Z,97368.63
2023-04-18T14:07:15.220Z,97368.56
2023-04-18T14:10:05.645Z,97364.63
2023-04-18T14:12:54.064Z,97367.81
2023-04-18T14:15:42.448Z,97368.84
2023-04-18T14:18:30.850Z,97363.94
2023-04-18T14:21:19.183Z,97364.03
2023-04-18T14:24:09.619Z,97367.44
2023-04-18T14:26:59.462Z,97370.72
2023-04-18T14:29:48.932Z,97376.41
2023-04-18T14:32:37.287Z,97376.41
2023-04-18T14:35:25.668Z,97375.97
2023-04-18T14:38:14.078Z,97378.56
2023-04-18T14:41:02.652Z,97370.41
2023-04-18T14:43:52.322Z,97372.69
2023-04-18T14:46:41.367Z,97363.22
2023-04-18T14:49:29.951Z,97362.84
2023-04-18T14:52:18.522Z,97373.63
2023-04-18T14:55:08.005Z,97370.34
2023-04-18T14:57:56.395Z,97364.25
2023-04-18T15:00:46.229Z,97369.94
2023-04-18T15:03:34.723Z,97376.75
2023-04-18T15:06:23.569Z,97375.47
2023-04-18T15:09:11.922Z,97379.09
2023-04-18T15:12:00.286Z,97376.31
2023-04-18T15:14:48.702Z,97370.66
2023-04-18T15:17:38.402Z,97371.69
2023-04-18T15:20:27.138Z,97371.72
2023-04-18T15:23:15.904Z,97376.19
2023-04-18T15:26:04.442Z,97375.22
2023-04-18T15:28:55.055Z,97370.66
2023-04-18T15:31:43.484Z,97371.09
2023-04-18T15:34:34.190Z,97374.00
2023-04-18T15:37:22.749Z,97374.72
2023-04-18T15:40:16.203Z,97377.06
2023-04-18T15:43:04.652Z,97374.41
2023-04-18T15:45:53.197Z,97371.91
2023-04-18T15:48:41.580Z,97369.69
2023-04-18T15:51:31.336Z,97373.91
2023-04-18T15:54:19.785Z,97384.09
2023-04-18T15:57:08.191Z,97384.09
2023-04-18T15:59:57.069Z,97382.50
2023-04-18T16:02:46.103Z,97381.91
2023-04-18T16:05:34.614Z,97387.28
2023-04-18T16:08:24.350Z,97383.31
2023-04-18T16:11:13.559Z,97388.25
2023-04-18T16:14:01.942Z,97385.84
2023-04-18T16:16:50.307Z,97392.03
2023-04-18T16:19:39.924Z,97399.63
2023-04-18T16:22:28.313Z,97393.56
2023-04-18T16:25:18.956Z,97391.94
2023-04-18T16:28:07.287Z,97389.63
2023-04-18T16:30:55.873Z,97397.31
2023-04-18T16:33:45.312Z,97401.53
2023-04-18T16:36:35.382Z,97396.31
2023-04-18T16:39:23.680Z,97388.31
2023-04-18T16:42:15.466Z,97399.53
2023-04-18T16:45:04.926Z,97392.03
2023-04-18T16:47:54.657Z,97409.13
2023-04-18T16:50:45.559Z,97401.00
2023-04-18T16:53:33.878Z,97399.28
2023-04-18T16:56:22.273Z,97407.00
2023-04-18T16:59:11.982Z,97405.91
2023-04-18T17:02:00.461Z,97399.81
2023-04-18T17:04:49.604Z,97412.78
2023-04-18T17:07:38.029Z,97415.47
2023-04-18T17:10:26.512Z,97417.63
2023-04-18T17:13:14.989Z,97419.34
2023-04-18T17:16:05.077Z,97413.56
2023-04-18T17:18:53.463Z,97422.78
2023-04-18T17:21:41.812Z,97428.06
2023-04-18T17:24:30.155Z,97429.94
2023-04-18T17:27:18.529Z,97443.44
2023-04-18T17:30:08.258Z,97432.16
2023-04-18T17:32:58.783Z,97441.63
2023-04-18T17:35:48.183Z,97436.66
2023-04-18T17:38:36.749Z,97436.28
2023-04-18T17:41:25.090Z,97445.53
2023-04-18T17:44:13.709Z,97448.13
2023-04-18T17:47:02.199Z,97446.13
2023-04-18T17:49:52.055Z,97440.50
2023-04-18T17:52:40.637Z,97441.56
2023-04-18T17:55:29.031Z,97446.31
2023-04-18T17:58:17.525Z,97449.53
2023-04-18T18:01:15.151Z,97454.44
2023-04-18T18:04:03.675Z,97446.28
2023-04-18T18:06:57.286Z,97464.00
2023-04-18T18:09:46.326Z,97459.22
2023-04-18T18:12:36.200Z,97460.34
2023-04-18T18:15:25.267Z,97463.66
2023-04-18T18:18:13.705Z,97461.47
2023-04-18T18:21:02.132Z,97468.25
2023-04-18T18:23:51.828Z,97472.81
2023-04-18T18:26:40.274Z,97468.16
2023-04-18T18:29:28.619Z,97474.31
2023-04-18T18:32:17.042Z,97484.56
2023-04-18T18:35:06.193Z,97480.59
2023-04-18T18:37:54.594Z,97486.19
2023-04-18T18:40:44.342Z,97483.00
2023-04-18T18:43:32.974Z,97491.13
2023-04-18T18:46:21.362Z,97485.72
2023-04-18T18:49:09.955Z,97491.63
2023-04-18T18:51:58.441Z,97492.72
2023-04-18T18:54:46.820Z,97498.63
2023-04-18T18:57:37.570Z,97493.78
2023-04-18T19:00:26.265Z,97501.81
2023-04-18T19:03:15.736Z,97499.44
2023-04-18T19:06:07.058Z,97499.28
2023-04-18T19:08:55.476Z,97505.94
2023-04-18T19:11:43.840Z,97502.50
2023-04-18T19:14:33.888Z,97500.69
2023-04-18T19:17:24.715Z,97504.16
2023-04-18T19:20:13.224Z,97497.47
2023-04-18T19:23:01.564Z,97498.25
2023-04-18T19:25:50.025Z,97500.88
2023-04-18T19:28:38.532Z,97494.47
2023-04-18T19:31:28.767Z,97488.06
2023-04-18T19:34:18.850Z,97492.81
2023-04-18T19:37:07.297Z,97488.22
2023-04-18T19:39:55.732Z,97494.41
2023-04-18T19:42:44.147Z,97491.69
2023-04-18T19:45:32.666Z,97490.88
2023-04-18T19:48:22.512Z,97491.13
2023-04-18T19:51:11.001Z,97493.88
2023-04-18T19:53:59.449Z,97501.94
2023-04-18T19:56:47.825Z,97483.16
2023-04-18T19:59:36.174Z,97485.28
2023-04-18T20:02:24.708Z,97486.34
2023-04-18T20:05:14.840Z,97480.81
2023-04-18T20:08:03.232Z,97486.44
2023-04-18T20:10:51.621Z,97486.38
2023-04-18T20:13:40.319Z,97492.78
2023-04-18T20:16:29.049Z,97489.59
2023-04-18T20:19:17.890Z,97489.09
2023-04-18T20:22:07.934Z,97484.84
2023-04-18T20:24:57.315Z,97496.13
2023-04-18T20:27:45.754Z,97488.56
2023-04-18T20:30:34.922Z,97493.44
2023-04-18T20:33:23.322Z,97491.53
2023-04-18T20:36:11.699Z,97495.50
2023-04-18T20:39:02.358Z,97496.38
2023-04-18T20:41:51.463Z,97494.81
2023-04-18T20:44:40.258Z,97486.50
2023-04-18T20:47:28.668Z,97491.31
2023-04-18T20:50:18.280Z,97491.91
2023-04-18T20:53:06.777Z,97488.16
2023-04-18T20:55:56.491Z,97489.22
2023-04-18T20:58:44.890Z,97495.69
2023-04-18T21:01:33.610Z,97488.66
2023-04-18T21:04:24.689Z,97495.09
2023-04-18T21:07:13.081Z,97490.06
2023-04-18T21:10:01.445Z,97494.09
2023-04-18T21:12:51.221Z,97490.84
2023-04-18T21:15:39.707Z,97498.34
2023-04-18T21:18:28.104Z,97502.69
2023-04-18T21:21:16.495Z,97500.50
2023-04-18T21:24:05.701Z,97501.31
2023-04-18T21:26:54.120Z,97492.19
2023-04-18T21:29:43.823Z,97499.47
2023-04-18T21:32:32.226Z,97504.53
2023-04-18T21:35:22.599Z,97499.97
2023-04-18T21:38:12.555Z,97503.22
2023-04-18T21:41:00.880Z,97500.81
2023-04-18T21:43:49.418Z,97503.25
2023-04-18T21:46:39.131Z,97509.16
2023-04-18T21:49:27.527Z,97491.41
2023-04-18T21:52:16.936Z,97505.34
2023-04-18T21:55:06.200Z,97494.63
2023-04-18T21:57:55.198Z,97499.78
2023-04-18T22:00:43.595Z,97499.25
2023-04-18T22:03:34.605Z,97497.34
2023-04-18T22:06:23.584Z,97495.19
2023-04-18T22:09:12.856Z,97491.94
2023-04-18T22:12:03.420Z,97485.00
2023-04-18T22:14:52.842Z,97485.00
2023-04-18T22:17:41.821Z,97485.81
2023-04-18T22:20:31.735Z,97482.06
2023-04-18T22:23:20.083Z,97481.78
2023-04-18T22:26:08.435Z,97482.31
2023-04-18T22:28:56.799Z,97479.63
2023-04-18T22:31:45.204Z,97484.72
2023-04-18T22:34:33.621Z,97479.88
2023-04-18T22:37:23.366Z,97478.03
2023-04-18T22:40:12.871Z,97479.66
2023-04-18T22:43:01.273Z,97473.47
2023-04-18T22:45:49.682Z,97475.34
2023-04-18T22:48:38.444Z,97474.03
2023-04-18T22:51:28.692Z,97475.63
2023-04-18T22:54:18.473Z,97476.41
2023-04-18T22:57:06.822Z,97475.88
2023-04-18T22:59:55.156Z,97474.25
2023-04-18T23:02:43.666Z,97472.38
2023-04-18T23:05:32.138Z,97482.06
2023-04-18T23:08:22.568Z,97489.03
2023-04-18T23:11:12.400Z,97482.84
2023-04-18T23:14:00.816Z,97484.47
2023-04-18T23:16:49.343Z,97478.56
2023-04-18T23:19:37.700Z,97481.84
2023-04-18T23:22:26.054Z,97477.53
2023-04-18T23:25:14.544Z,97474.84
2023-04-18T23:28:04.375Z,97477.00
2023-04-18T23:30:53.287Z,97473.81
2023-04-18T23:33:41.628Z,97479.72
2023-04-18T23:36:29.937Z,97478.13
2023-04-18T23:39:18.612Z,97476.22
2023-04-18T23:42:07.044Z,97473.53
2023-04-18T23:44:57.821Z,97471.66
2023-04-18T23:47:46.352Z,97466.78
2023-04-18T23:50:35.336Z,97464.41
2023-04-18T23:53:24.884Z,97457.16
2023-04-18T23:56:13.370Z,97458.50
2023-04-18T23:59:01.704Z,97449.59
